sensor_id;sensor_type;location;lat;lon;timestamp;P1;durP1;ratioP1;P2;durP2;ratioP2
12725;SDS011;6427;49.754;6.106;2023-06-26T00:01:39;8.93;;;6.40;;
12725;SDS011;6427;49.754;6.106;2023-06-26T00:04:06;9.13;;;6.23;;
12725;SDS011;6427;49.754;6.106;2023-06-26T00:06:34;7.87;;;6.30;;
12725;SDS011;6427;49.754;6.106;2023-06-26T00:09:02;6.57;;;5.70;;
12725;SDS011;6427;49.754;6.106;2023-06-26T00:11:29;8.83;;;6.03;;
12725;SDS011;6427;49.754;6.106;2023-06-26T00:13:57;7.13;;;6.23;;
12725;SDS011;6427;49.754;6.106;2023-06-26T00:16:25;6.37;;;5.43;;
12725;SDS011;6427;49.754;6.106;2023-06-26T00:18:52;7.10;;;5.57;;
12725;SDS011;6427;49.754;6.106;2023-06-26T00:21:20;10.23;;;5.93;;
12725;SDS011;6427;49.754;6.106;2023-06-26T00:23:47;9.07;;;7.20;;
12725;SDS011;6427;49.754;6.106;2023-06-26T00:26:15;8.43;;;6.83;;
12725;SDS011;6427;49.754;6.106;2023-06-26T00:28:42;7.87;;;6.30;;
12725;SDS011;6427;49.754;6.106;2023-06-26T00:31:10;9.10;;;6.07;;
12725;SDS011;6427;49.754;6.106;2023-06-26T00:33:38;9.87;;;6.67;;
12725;SDS011;6427;49.754;6.106;2023-06-26T00:36:06;7.47;;;6.57;;
12725;SDS011;6427;49.754;6.106;2023-06-26T00:38:34;7.67;;;6.03;;
12725;SDS011;6427;49.754;6.106;2023-06-26T00:41:01;7.13;;;5.90;;
12725;SDS011;6427;49.754;6.106;2023-06-26T00:43:29;8.67;;;6.50;;
12725;SDS011;6427;49.754;6.106;2023-06-26T00:45:56;9.85;;;7.90;;
12725;SDS011;6427;49.754;6.106;2023-06-26T00:48:24;9.43;;;7.07;;
12725;SDS011;6427;49.754;6.106;2023-06-26T00:50:51;8.17;;;6.20;;
12725;SDS011;6427;49.754;6.106;2023-06-26T00:53:19;8.93;;;6.07;;
12725;SDS011;6427;49.754;6.106;2023-06-26T00:55:47;7.13;;;6.43;;
12725;SDS011;6427;49.754;6.106;2023-06-26T00:58:14;10.13;;;6.73;;
12725;SDS011;6427;49.754;6.106;2023-06-26T01:00:43;10.50;;;6.57;;
12725;SDS011;6427;49.754;6.106;2023-06-26T01:03:10;9.10;;;6.67;;
12725;SDS011;6427;49.754;6.106;2023-06-26T01:05:38;8.88;;;7.05;;
12725;SDS011;6427;49.754;6.106;2023-06-26T01:08:06;7.87;;;6.70;;
12725;SDS011;6427;49.754;6.106;2023-06-26T01:10:33;9.00;;;7.43;;
12725;SDS011;6427;49.754;6.106;2023-06-26T01:13:01;8.23;;;6.63;;
12725;SDS011;6427;49.754;6.106;2023-06-26T01:15:28;11.47;;;7.03;;
12725;SDS011;6427;49.754;6.106;2023-06-26T01:17:57;8.03;;;6.83;;
12725;SDS011;6427;49.754;6.106;2023-06-26T01:20:23;11.23;;;6.80;;
12725;SDS011;6427;49.754;6.106;2023-06-26T01:23:04;9.00;;;6.87;;
12725;SDS011;6427;49.754;6.106;2023-06-26T01:25:40;8.30;;;6.67;;
12725;SDS011;6427;49.754;6.106;2023-06-26T01:28:15;8.20;;;6.50;;
12725;SDS011;6427;49.754;6.106;2023-06-26T01:30:43;9.83;;;6.77;;
12725;SDS011;6427;49.754;6.106;2023-06-26T01:33:11;8.17;;;6.30;;
12725;SDS011;6427;49.754;6.106;2023-06-26T01:35:38;7.80;;;7.00;;
12725;SDS011;6427;49.754;6.106;2023-06-26T01:38:16;8.27;;;6.70;;
12725;SDS011;6427;49.754;6.106;2023-06-26T01:40:43;7.53;;;6.73;;
12725;SDS011;6427;49.754;6.106;2023-06-26T01:45:50;10.25;;;8.00;;
12725;SDS011;6427;49.754;6.106;2023-06-26T01:48:18;7.50;;;6.60;;
12725;SDS011;6427;49.754;6.106;2023-06-26T01:50:45;9.98;;;7.78;;
12725;SDS011;6427;49.754;6.106;2023-06-26T01:53:14;8.73;;;6.67;;
12725;SDS011;6427;49.754;6.106;2023-06-26T01:55:41;8.25;;;7.37;;
12725;SDS011;6427;49.754;6.106;2023-06-26T01:58:08;8.87;;;7.50;;
12725;SDS011;6427;49.754;6.106;2023-06-26T02:00:37;10.43;;;6.87;;
12725;SDS011;6427;49.754;6.106;2023-06-26T02:03:04;8.17;;;6.73;;
12725;SDS011;6427;49.754;6.106;2023-06-26T02:05:32;8.47;;;7.30;;
12725;SDS011;6427;49.754;6.106;2023-06-26T02:07:59;10.23;;;7.33;;
12725;SDS011;6427;49.754;6.106;2023-06-26T02:10:27;8.60;;;6.97;;
12725;SDS011;6427;49.754;6.106;2023-06-26T02:12:54;7.10;;;6.30;;
12725;SDS011;6427;49.754;6.106;2023-06-26T02:15:22;10.57;;;6.43;;
12725;SDS011;6427;49.754;6.106;2023-06-26T02:17:50;10.00;;;7.53;;
12725;SDS011;6427;49.754;6.106;2023-06-26T02:20:17;10.40;;;8.27;;
12725;SDS011;6427;49.754;6.106;2023-06-26T02:22:45;9.83;;;7.37;;
12725;SDS011;6427;49.754;6.106;2023-06-26T02:25:12;8.73;;;6.80;;
12725;SDS011;6427;49.754;6.106;2023-06-26T02:27:40;11.47;;;7.97;;
12725;SDS011;6427;49.754;6.106;2023-06-26T02:30:08;10.33;;;7.10;;
12725;SDS011;6427;49.754;6.106;2023-06-26T02:32:35;10.17;;;7.07;;
12725;SDS011;6427;49.754;6.106;2023-06-26T02:35:03;11.27;;;8.23;;
12725;SDS011;6427;49.754;6.106;2023-06-26T02:37:30;9.40;;;7.47;;
12725;SDS011;6427;49.754;6.106;2023-06-26T02:39:58;8.03;;;6.83;;
12725;SDS011;6427;49.754;6.106;2023-06-26T02:42:25;8.33;;;6.80;;
12725;SDS011;6427;49.754;6.106;2023-06-26T02:44:53;10.05;;;8.38;;
12725;SDS011;6427;49.754;6.106;2023-06-26T02:47:21;8.83;;;6.90;;
12725;SDS011;6427;49.754;6.106;2023-06-26T02:49:48;11.97;;;7.87;;
12725;SDS011;6427;49.754;6.106;2023-06-26T02:52:16;11.43;;;6.93;;
12725;SDS011;6427;49.754;6.106;2023-06-26T02:54:43;10.13;;;7.33;;
12725;SDS011;6427;49.754;6.106;2023-06-26T02:57:11;9.13;;;7.00;;
12725;SDS011;6427;49.754;6.106;2023-06-26T02:59:39;10.23;;;6.80;;
12725;SDS011;6427;49.754;6.106;2023-06-26T03:02:07;8.97;;;7.10;;
12725;SDS011;6427;49.754;6.106;2023-06-26T03:04:35;8.43;;;6.83;;
12725;SDS011;6427;49.754;6.106;2023-06-26T03:07:03;10.20;;;6.83;;
12725;SDS011;6427;49.754;6.106;2023-06-26T03:09:30;8.87;;;6.57;;
12725;SDS011;6427;49.754;6.106;2023-06-26T03:11:58;8.63;;;6.87;;
12725;SDS011;6427;49.754;6.106;2023-06-26T03:14:26;8.73;;;7.27;;
12725;SDS011;6427;49.754;6.106;2023-06-26T03:16:54;7.97;;;7.17;;
12725;SDS011;6427;49.754;6.106;2023-06-26T03:19:22;9.03;;;7.20;;
12725;SDS011;6427;49.754;6.106;2023-06-26T03:21:49;9.57;;;7.37;;
12725;SDS011;6427;49.754;6.106;2023-06-26T03:24:17;10.47;;;7.50;;
12725;SDS011;6427;49.754;6.106;2023-06-26T03:26:45;8.57;;;7.17;;
12725;SDS011;6427;49.754;6.106;2023-06-26T03:29:13;9.27;;;7.60;;
12725;SDS011;6427;49.754;6.106;2023-06-26T03:31:40;10.37;;;7.40;;
12725;SDS011;6427;49.754;6.106;2023-06-26T03:34:08;9.27;;;7.60;;
12725;SDS011;6427;49.754;6.106;2023-06-26T03:36:35;10.90;;;7.17;;
12725;SDS011;6427;49.754;6.106;2023-06-26T03:39:03;8.43;;;7.20;;
12725;SDS011;6427;49.754;6.106;2023-06-26T03:41:31;10.13;;;7.70;;
12725;SDS011;6427;49.754;6.106;2023-06-26T03:43:58;8.57;;;7.40;;
12725;SDS011;6427;49.754;6.106;2023-06-26T03:46:26;10.50;;;7.80;;
12725;SDS011;6427;49.754;6.106;2023-06-26T03:48:53;8.63;;;7.00;;
12725;SDS011;6427;49.754;6.106;2023-06-26T03:51:22;8.80;;;7.13;;
12725;SDS011;6427;49.754;6.106;2023-06-26T03:53:49;10.73;;;7.83;;
12725;SDS011;6427;49.754;6.106;2023-06-26T03:56:18;10.47;;;7.07;;
12725;SDS011;6427;49.754;6.106;2023-06-26T03:58:45;10.87;;;7.10;;
12725;SDS011;6427;49.754;6.106;2023-06-26T04:01:13;9.60;;;7.47;;
12725;SDS011;6427;49.754;6.106;2023-06-26T04:03:40;10.33;;;7.60;;
12725;SDS011;6427;49.754;6.106;2023-06-26T04:06:08;8.43;;;7.50;;
12725;SDS011;6427;49.754;6.106;2023-06-26T04:08:36;9.17;;;7.80;;
12725;SDS011;6427;49.754;6.106;2023-06-26T04:11:04;8.47;;;7.57;;
12725;SDS011;6427;49.754;6.106;2023-06-26T04:13:32;12.13;;;8.17;;
12725;SDS011;6427;49.754;6.106;2023-06-26T04:15:59;10.07;;;8.13;;
12725;SDS011;6427;49.754;6.106;2023-06-26T04:18:27;9.93;;;8.03;;
12725;SDS011;6427;49.754;6.106;2023-06-26T04:21:04;10.17;;;7.10;;
12725;SDS011;6427;49.754;6.106;2023-06-26T04:23:40;8.23;;;7.17;;
12725;SDS011;6427;49.754;6.106;2023-06-26T04:26:08;11.20;;;7.97;;
12725;SDS011;6427;49.754;6.106;2023-06-26T04:28:35;11.77;;;7.97;;
12725;SDS011;6427;49.754;6.106;2023-06-26T04:31:03;12.63;;;8.20;;
12725;SDS011;6427;49.754;6.106;2023-06-26T04:33:30;12.03;;;8.17;;
12725;SDS011;6427;49.754;6.106;2023-06-26T04:35:58;13.63;;;8.17;;
12725;SDS011;6427;49.754;6.106;2023-06-26T04:38:25;11.43;;;7.70;;
12725;SDS011;6427;49.754;6.106;2023-06-26T04:40:54;12.10;;;8.47;;
12725;SDS011;6427;49.754;6.106;2023-06-26T04:43:21;13.90;;;8.03;;
12725;SDS011;6427;49.754;6.106;2023-06-26T04:45:49;9.40;;;8.10;;
12725;SDS011;6427;49.754;6.106;2023-06-26T04:48:17;9.50;;;8.00;;
12725;SDS011;6427;49.754;6.106;2023-06-26T04:50:44;12.27;;;7.87;;
12725;SDS011;6427;49.754;6.106;2023-06-26T04:53:12;14.07;;;8.07;;
12725;SDS011;6427;49.754;6.106;2023-06-26T04:55:39;15.00;;;8.07;;
12725;SDS011;6427;49.754;6.106;2023-06-26T04:58:07;12.30;;;7.80;;
12725;SDS011;6427;49.754;6.106;2023-06-26T05:00:34;9.50;;;7.63;;
12725;SDS011;6427;49.754;6.106;2023-06-26T05:03:02;9.40;;;7.40;;
12725;SDS011;6427;49.754;6.106;2023-06-26T05:05:30;11.53;;;7.80;;
12725;SDS011;6427;49.754;6.106;2023-06-26T05:07:57;10.37;;;7.73;;
12725;SDS011;6427;49.754;6.106;2023-06-26T05:10:25;11.63;;;8.10;;
12725;SDS011;6427;49.754;6.106;2023-06-26T05:12:52;10.90;;;7.40;;
12725;SDS011;6427;49.754;6.106;2023-06-26T05:15:20;11.63;;;7.53;;
12725;SDS011;6427;49.754;6.106;2023-06-26T05:17:48;10.00;;;6.87;;
12725;SDS011;6427;49.754;6.106;2023-06-26T05:20:16;12.87;;;6.83;;
12725;SDS011;6427;49.754;6.106;2023-06-26T05:22:44;13.13;;;7.57;;
12725;SDS011;6427;49.754;6.106;2023-06-26T05:25:11;11.27;;;6.90;;
12725;SDS011;6427;49.754;6.106;2023-06-26T05:27:39;9.63;;;6.37;;
12725;SDS011;6427;49.754;6.106;2023-06-26T05:30:06;8.47;;;5.20;;
12725;SDS011;6427;49.754;6.106;2023-06-26T05:32:34;8.17;;;5.40;;
12725;SDS011;6427;49.754;6.106;2023-06-26T05:35:02;6.93;;;4.30;;
12725;SDS011;6427;49.754;6.106;2023-06-26T05:37:29;6.33;;;4.33;;
12725;SDS011;6427;49.754;6.106;2023-06-26T05:39:57;7.40;;;4.57;;
12725;SDS011;6427;49.754;6.106;2023-06-26T05:42:25;4.67;;;3.80;;
12725;SDS011;6427;49.754;6.106;2023-06-26T05:44:52;4.57;;;3.80;;
12725;SDS011;6427;49.754;6.106;2023-06-26T05:47:20;4.20;;;3.80;;
12725;SDS011;6427;49.754;6.106;2023-06-26T05:49:47;5.13;;;3.33;;
12725;SDS011;6427;49.754;6.106;2023-06-26T05:52:15;4.47;;;3.50;;
12725;SDS011;6427;49.754;6.106;2023-06-26T05:54:43;3.27;;;2.63;;
12725;SDS011;6427;49.754;6.106;2023-06-26T05:57:10;3.20;;;2.57;;
12725;SDS011;6427;49.754;6.106;2023-06-26T05:59:38;6.13;;;3.10;;
12725;SDS011;6427;49.754;6.106;2023-06-26T06:02:05;3.13;;;2.80;;
12725;SDS011;6427;49.754;6.106;2023-06-26T06:04:33;4.80;;;2.90;;
12725;SDS011;6427;49.754;6.106;2023-06-26T06:07:00;4.97;;;2.70;;
12725;SDS011;6427;49.754;6.106;2023-06-26T06:09:28;4.33;;;2.43;;
12725;SDS011;6427;49.754;6.106;2023-06-26T06:11:56;5.27;;;2.40;;
12725;SDS011;6427;49.754;6.106;2023-06-26T06:14:23;3.37;;;1.90;;
12725;SDS011;6427;49.754;6.106;2023-06-26T06:16:52;3.63;;;2.20;;
12725;SDS011;6427;49.754;6.106;2023-06-26T06:19:19;5.53;;;2.50;;
12725;SDS011;6427;49.754;6.106;2023-06-26T06:21:47;5.07;;;2.23;;
12725;SDS011;6427;49.754;6.106;2023-06-26T06:24:14;3.97;;;2.65;;
12725;SDS011;6427;49.754;6.106;2023-06-26T06:26:42;3.73;;;2.30;;
12725;SDS011;6427;49.754;6.106;2023-06-26T06:29:10;3.93;;;2.77;;
12725;SDS011;6427;49.754;6.106;2023-06-26T06:31:38;3.67;;;2.70;;
12725;SDS011;6427;49.754;6.106;2023-06-26T06:34:06;4.43;;;2.60;;
12725;SDS011;6427;49.754;6.106;2023-06-26T06:36:33;4.90;;;2.57;;
12725;SDS011;6427;49.754;6.106;2023-06-26T06:39:01;3.47;;;2.57;;
12725;SDS011;6427;49.754;6.106;2023-06-26T06:41:28;7.57;;;2.47;;
12725;SDS011;6427;49.754;6.106;2023-06-26T06:43:56;4.90;;;2.57;;
12725;SDS011;6427;49.754;6.106;2023-06-26T06:46:23;3.70;;;2.60;;
12725;SDS011;6427;49.754;6.106;2023-06-26T06:48:51;3.33;;;2.10;;
12725;SDS011;6427;49.754;6.106;2023-06-26T06:51:19;4.57;;;2.33;;
12725;SDS011;6427;49.754;6.106;2023-06-26T06:53:47;4.93;;;2.93;;
12725;SDS011;6427;49.754;6.106;2023-06-26T06:56:15;6.20;;;2.50;;
12725;SDS011;6427;49.754;6.106;2023-06-26T06:58:43;4.70;;;3.00;;
12725;SDS011;6427;49.754;6.106;2023-06-26T07:01:12;4.87;;;2.77;;
12725;SDS011;6427;49.754;6.106;2023-06-26T07:03:39;6.10;;;2.50;;
12725;SDS011;6427;49.754;6.106;2023-06-26T07:06:07;8.03;;;2.90;;
12725;SDS011;6427;49.754;6.106;2023-06-26T07:08:35;5.67;;;2.70;;
12725;SDS011;6427;49.754;6.106;2023-06-26T07:11:03;5.10;;;2.87;;
12725;SDS011;6427;49.754;6.106;2023-06-26T07:13:31;6.07;;;2.95;;
12725;SDS011;6427;49.754;6.106;2023-06-26T07:15:58;5.70;;;2.90;;
12725;SDS011;6427;49.754;6.106;2023-06-26T07:18:26;5.00;;;2.37;;
12725;SDS011;6427;49.754;6.106;2023-06-26T07:20:54;5.93;;;2.53;;
12725;SDS011;6427;49.754;6.106;2023-06-26T07:23:21;6.60;;;2.87;;
12725;SDS011;6427;49.754;6.106;2023-06-26T07:25:49;5.33;;;2.57;;
12725;SDS011;6427;49.754;6.106;2023-06-26T07:28:16;4.40;;;2.63;;
12725;SDS011;6427;49.754;6.106;2023-06-26T07:30:44;5.77;;;3.10;;
12725;SDS011;6427;49.754;6.106;2023-06-26T07:33:12;4.33;;;2.30;;
12725;SDS011;6427;49.754;6.106;2023-06-26T07:35:39;4.60;;;2.70;;
12725;SDS011;6427;49.754;6.106;2023-06-26T07:38:08;4.27;;;2.63;;
12725;SDS011;6427;49.754;6.106;2023-06-26T07:40:35;4.37;;;2.80;;
12725;SDS011;6427;49.754;6.106;2023-06-26T07:43:03;5.97;;;3.25;;
12725;SDS011;6427;49.754;6.106;2023-06-26T07:45:30;5.78;;;3.20;;
12725;SDS011;6427;49.754;6.106;2023-06-26T07:47:58;7.53;;;3.57;;
12725;SDS011;6427;49.754;6.106;2023-06-26T07:50:25;5.53;;;3.10;;
12725;SDS011;6427;49.754;6.106;2023-06-26T07:52:53;4.20;;;2.87;;
12725;SDS011;6427;49.754;6.106;2023-06-26T07:55:21;5.77;;;3.00;;
12725;SDS011;6427;49.754;6.106;2023-06-26T07:57:48;5.47;;;2.85;;
12725;SDS011;6427;49.754;6.106;2023-06-26T08:00:16;5.20;;;3.00;;
12725;SDS011;6427;49.754;6.106;2023-06-26T08:02:43;7.20;;;3.27;;
12725;SDS011;6427;49.754;6.106;2023-06-26T08:05:11;4.60;;;2.80;;
12725;SDS011;6427;49.754;6.106;2023-06-26T08:07:39;7.57;;;3.03;;
12725;SDS011;6427;49.754;6.106;2023-06-26T08:10:06;4.10;;;2.10;;
12725;SDS011;6427;49.754;6.106;2023-06-26T08:12:34;6.00;;;2.10;;
12725;SDS011;6427;49.754;6.106;2023-06-26T08:15:02;7.47;;;2.13;;
12725;SDS011;6427;49.754;6.106;2023-06-26T08:17:30;3.00;;;1.90;;
12725;SDS011;6427;49.754;6.106;2023-06-26T08:19:57;6.33;;;2.30;;
12725;SDS011;6427;49.754;6.106;2023-06-26T08:22:25;5.57;;;2.40;;
12725;SDS011;6427;49.754;6.106;2023-06-26T08:24:52;5.47;;;2.23;;
12725;SDS011;6427;49.754;6.106;2023-06-26T08:27:20;6.18;;;2.40;;
12725;SDS011;6427;49.754;6.106;2023-06-26T08:29:48;4.70;;;2.30;;
12725;SDS011;6427;49.754;6.106;2023-06-26T08:32:15;6.37;;;2.17;;
12725;SDS011;6427;49.754;6.106;2023-06-26T08:34:43;4.67;;;2.03;;
12725;SDS011;6427;49.754;6.106;2023-06-26T08:37:10;6.40;;;2.30;;
12725;SDS011;6427;49.754;6.106;2023-06-26T08:39:38;5.07;;;2.33;;
12725;SDS011;6427;49.754;6.106;2023-06-26T08:42:06;5.00;;;2.10;;
12725;SDS011;6427;49.754;6.106;2023-06-26T08:44:34;5.87;;;2.50;;
12725;SDS011;6427;49.754;6.106;2023-06-26T08:47:01;8.70;;;3.17;;
12725;SDS011;6427;49.754;6.106;2023-06-26T08:52:35;6.50;;;2.63;;
12725;SDS011;6427;49.754;6.106;2023-06-26T08:55:02;4.37;;;2.23;;
12725;SDS011;6427;49.754;6.106;2023-06-26T08:57:29;5.53;;;2.43;;
12725;SDS011;6427;49.754;6.106;2023-06-26T08:59:57;6.07;;;2.30;;
12725;SDS011;6427;49.754;6.106;2023-06-26T09:02:25;3.57;;;2.03;;
12725;SDS011;6427;49.754;6.106;2023-06-26T09:04:52;7.47;;;2.30;;
12725;SDS011;6427;49.754;6.106;2023-06-26T09:07:20;5.87;;;2.37;;
12725;SDS011;6427;49.754;6.106;2023-06-26T09:09:48;6.57;;;2.40;;
12725;SDS011;6427;49.754;6.106;2023-06-26T09:12:15;4.30;;;2.47;;
12725;SDS011;6427;49.754;6.106;2023-06-26T09:14:43;10.20;;;2.27;;
12725;SDS011;6427;49.754;6.106;2023-06-26T09:17:10;6.30;;;2.07;;
12725;SDS011;6427;49.754;6.106;2023-06-26T09:19:38;7.00;;;2.00;;
12725;SDS011;6427;49.754;6.106;2023-06-26T09:22:10;5.53;;;2.10;;
12725;SDS011;6427;49.754;6.106;2023-06-26T09:24:40;5.03;;;1.80;;
12725;SDS011;6427;49.754;6.106;2023-06-26T09:27:08;5.20;;;2.23;;
12725;SDS011;6427;49.754;6.106;2023-06-26T09:29:36;3.20;;;1.60;;
12725;SDS011;6427;49.754;6.106;2023-06-26T09:32:04;4.65;;;1.80;;
12725;SDS011;6427;49.754;6.106;2023-06-26T09:34:32;6.13;;;1.63;;
12725;SDS011;6427;49.754;6.106;2023-06-26T09:36:59;5.60;;;1.80;;
12725;SDS011;6427;49.754;6.106;2023-06-26T09:39:27;4.30;;;1.70;;
12725;SDS011;6427;49.754;6.106;2023-06-26T09:41:54;3.23;;;1.37;;
12725;SDS011;6427;49.754;6.106;2023-06-26T09:44:22;2.13;;;1.20;;
12725;SDS011;6427;49.754;6.106;2023-06-26T09:46:49;4.73;;;1.43;;
12725;SDS011;6427;49.754;6.106;2023-06-26T09:49:17;1.67;;;1.33;;
12725;SDS011;6427;49.754;6.106;2023-06-26T09:51:45;4.30;;;1.57;;
12725;SDS011;6427;49.754;6.106;2023-06-26T09:54:15;6.67;;;1.70;;
12725;SDS011;6427;49.754;6.106;2023-06-26T09:56:40;4.70;;;1.30;;
12725;SDS011;6427;49.754;6.106;2023-06-26T09:59:09;4.15;;;1.70;;
12725;SDS011;6427;49.754;6.106;2023-06-26T10:01:39;3.33;;;1.50;;
12725;SDS011;6427;49.754;6.106;2023-06-26T10:04:04;4.67;;;1.27;;
12725;SDS011;6427;49.754;6.106;2023-06-26T10:06:45;3.27;;;1.13;;
12725;SDS011;6427;49.754;6.106;2023-06-26T10:09:08;2.70;;;1.20;;
12725;SDS011;6427;49.754;6.106;2023-06-26T10:14:18;3.20;;;1.53;;
12725;SDS011;6427;49.754;6.106;2023-06-26T10:16:46;4.10;;;1.27;;
12725;SDS011;6427;49.754;6.106;2023-06-26T10:19:13;2.73;;;1.40;;
12725;SDS011;6427;49.754;6.106;2023-06-26T10:21:41;4.40;;;1.10;;
12725;SDS011;6427;49.754;6.106;2023-06-26T10:24:10;1.50;;;1.00;;
12725;SDS011;6427;49.754;6.106;2023-06-26T10:26:38;1.23;;;0.90;;
12725;SDS011;6427;49.754;6.106;2023-06-26T10:29:04;3.03;;;0.80;;
12725;SDS011;6427;49.754;6.106;2023-06-26T10:31:33;2.07;;;1.00;;
12725;SDS011;6427;49.754;6.106;2023-06-26T10:34:00;1.40;;;0.80;;
12725;SDS011;6427;49.754;6.106;2023-06-26T10:36:29;2.27;;;0.63;;
12725;SDS011;6427;49.754;6.106;2023-06-26T10:38:56;3.37;;;0.80;;
12725;SDS011;6427;49.754;6.106;2023-06-26T10:41:23;1.97;;;0.90;;
12725;SDS011;6427;49.754;6.106;2023-06-26T10:46:27;3.70;;;1.00;;
12725;SDS011;6427;49.754;6.106;2023-06-26T10:48:57;1.87;;;1.03;;
12725;SDS011;6427;49.754;6.106;2023-06-26T10:51:25;3.30;;;1.00;;
12725;SDS011;6427;49.754;6.106;2023-06-26T10:53:55;1.83;;;1.10;;
12725;SDS011;6427;49.754;6.106;2023-06-26T10:59:18;2.37;;;1.00;;
12725;SDS011;6427;49.754;6.106;2023-06-26T11:01:55;3.20;;;1.10;;
12725;SDS011;6427;49.754;6.106;2023-06-26T11:09:54;2.93;;;1.07;;
12725;SDS011;6427;49.754;6.106;2023-06-26T11:12:37;2.03;;;0.90;;
12725;SDS011;6427;49.754;6.106;2023-06-26T11:15:14;2.65;;;1.15;;
12725;SDS011;6427;49.754;6.106;2023-06-26T11:17:42;2.97;;;1.30;;
12725;SDS011;6427;49.754;6.106;2023-06-26T11:20:10;2.67;;;1.00;;
12725;SDS011;6427;49.754;6.106;2023-06-26T11:22:38;2.53;;;1.20;;
12725;SDS011;6427;49.754;6.106;2023-06-26T11:25:05;4.37;;;0.87;;
12725;SDS011;6427;49.754;6.106;2023-06-26T11:27:37;4.87;;;1.03;;
12725;SDS011;6427;49.754;6.106;2023-06-26T11:30:07;3.77;;;1.30;;
12725;SDS011;6427;49.754;6.106;2023-06-26T11:32:35;4.47;;;1.20;;
12725;SDS011;6427;49.754;6.106;2023-06-26T11:35:02;2.83;;;1.00;;
12725;SDS011;6427;49.754;6.106;2023-06-26T11:37:30;5.07;;;1.10;;
12725;SDS011;6427;49.754;6.106;2023-06-26T11:39:57;3.93;;;1.23;;
12725;SDS011;6427;49.754;6.106;2023-06-26T11:42:25;3.37;;;1.10;;
12725;SDS011;6427;49.754;6.106;2023-06-26T11:44:53;4.10;;;1.10;;
12725;SDS011;6427;49.754;6.106;2023-06-26T11:47:20;5.23;;;1.40;;
12725;SDS011;6427;49.754;6.106;2023-06-26T11:49:48;3.10;;;0.93;;
12725;SDS011;6427;49.754;6.106;2023-06-26T11:52:16;3.97;;;1.27;;
12725;SDS011;6427;49.754;6.106;2023-06-26T11:54:44;3.57;;;1.10;;
12725;SDS011;6427;49.754;6.106;2023-06-26T11:57:14;6.40;;;1.03;;
12725;SDS011;6427;49.754;6.106;2023-06-26T11:59:41;4.10;;;1.77;;
12725;SDS011;6427;49.754;6.106;2023-06-26T12:02:10;3.17;;;1.20;;
12725;SDS011;6427;49.754;6.106;2023-06-26T12:04:38;2.07;;;1.03;;
12725;SDS011;6427;49.754;6.106;2023-06-26T12:07:05;3.77;;;1.07;;
12725;SDS011;6427;49.754;6.106;2023-06-26T12:09:33;3.27;;;1.27;;
12725;SDS011;6427;49.754;6.106;2023-06-26T12:12:01;4.37;;;1.30;;
12725;SDS011;6427;49.754;6.106;2023-06-26T12:14:28;2.37;;;1.10;;
12725;SDS011;6427;49.754;6.106;2023-06-26T12:16:56;3.17;;;1.27;;
12725;SDS011;6427;49.754;6.106;2023-06-26T12:19:24;7.20;;;1.27;;
12725;SDS011;6427;49.754;6.106;2023-06-26T12:21:52;4.57;;;1.10;;
12725;SDS011;6427;49.754;6.106;2023-06-26T12:24:20;3.33;;;1.23;;
12725;SDS011;6427;49.754;6.106;2023-06-26T12:26:51;2.63;;;1.40;;
12725;SDS011;6427;49.754;6.106;2023-06-26T12:29:18;2.57;;;1.27;;
12725;SDS011;6427;49.754;6.106;2023-06-26T12:31:48;3.37;;;1.17;;
12725;SDS011;6427;49.754;6.106;2023-06-26T12:34:14;3.80;;;1.20;;
12725;SDS011;6427;49.754;6.106;2023-06-26T12:36:44;5.23;;;1.47;;
12725;SDS011;6427;49.754;6.106;2023-06-26T12:39:11;4.73;;;1.33;;
12725;SDS011;6427;49.754;6.106;2023-06-26T12:41:45;4.03;;;1.50;;
12725;SDS011;6427;49.754;6.106;2023-06-26T12:44:18;4.17;;;1.10;;
12725;SDS011;6427;49.754;6.106;2023-06-26T12:46:53;3.63;;;1.20;;
12725;SDS011;6427;49.754;6.106;2023-06-26T12:49:35;3.13;;;1.20;;
12725;SDS011;6427;49.754;6.106;2023-06-26T12:52:03;3.10;;;1.20;;
12725;SDS011;6427;49.754;6.106;2023-06-26T12:54:29;4.67;;;1.30;;
12725;SDS011;6427;49.754;6.106;2023-06-26T12:56:57;4.93;;;1.30;;
12725;SDS011;6427;49.754;6.106;2023-06-26T12:59:24;4.00;;;1.20;;
12725;SDS011;6427;49.754;6.106;2023-06-26T13:01:52;3.70;;;1.20;;
12725;SDS011;6427;49.754;6.106;2023-06-26T13:04:20;1.97;;;1.00;;
12725;SDS011;6427;49.754;6.106;2023-06-26T13:06:47;4.03;;;1.20;;
12725;SDS011;6427;49.754;6.106;2023-06-26T13:09:15;4.57;;;1.50;;
12725;SDS011;6427;49.754;6.106;2023-06-26T13:11:43;4.93;;;1.30;;
12725;SDS011;6427;49.754;6.106;2023-06-26T13:14:10;3.33;;;1.30;;
12725;SDS011;6427;49.754;6.106;2023-06-26T13:16:38;2.30;;;1.13;;
12725;SDS011;6427;49.754;6.106;2023-06-26T13:19:05;2.60;;;1.10;;
12725;SDS011;6427;49.754;6.106;2023-06-26T13:21:33;3.20;;;1.40;;
12725;SDS011;6427;49.754;6.106;2023-06-26T13:24:00;2.73;;;1.10;;
12725;SDS011;6427;49.754;6.106;2023-06-26T13:26:28;3.40;;;1.27;;
12725;SDS011;6427;49.754;6.106;2023-06-26T13:28:56;3.17;;;1.10;;
12725;SDS011;6427;49.754;6.106;2023-06-26T13:31:23;3.47;;;1.30;;
12725;SDS011;6427;49.754;6.106;2023-06-26T13:33:51;3.93;;;1.23;;
12725;SDS011;6427;49.754;6.106;2023-06-26T13:36:21;3.05;;;1.50;;
12725;SDS011;6427;49.754;6.106;2023-06-26T13:38:48;2.47;;;1.00;;
12725;SDS011;6427;49.754;6.106;2023-06-26T13:41:16;4.13;;;1.40;;
12725;SDS011;6427;49.754;6.106;2023-06-26T13:43:43;2.90;;;1.30;;
12725;SDS011;6427;49.754;6.106;2023-06-26T13:46:12;1.90;;;1.10;;
12725;SDS011;6427;49.754;6.106;2023-06-26T13:48:39;3.87;;;1.37;;
12725;SDS011;6427;49.754;6.106;2023-06-26T13:51:07;3.27;;;1.40;;
12725;SDS011;6427;49.754;6.106;2023-06-26T13:53:35;3.80;;;1.70;;
12725;SDS011;6427;49.754;6.106;2023-06-26T13:56:02;2.50;;;1.17;;
12725;SDS011;6427;49.754;6.106;2023-06-26T13:58:30;2.20;;;1.00;;
12725;SDS011;6427;49.754;6.106;2023-06-26T14:00:58;2.83;;;1.20;;
12725;SDS011;6427;49.754;6.106;2023-06-26T14:03:26;6.10;;;1.20;;
12725;SDS011;6427;49.754;6.106;2023-06-26T14:05:53;2.57;;;1.30;;
12725;SDS011;6427;49.754;6.106;2023-06-26T14:08:21;5.28;;;1.50;;
12725;SDS011;6427;49.754;6.106;2023-06-26T14:10:48;3.53;;;1.50;;
12725;SDS011;6427;49.754;6.106;2023-06-26T14:13:16;5.23;;;1.60;;
12725;SDS011;6427;49.754;6.106;2023-06-26T14:15:43;6.23;;;1.60;;
12725;SDS011;6427;49.754;6.106;2023-06-26T14:18:11;2.97;;;1.27;;
12725;SDS011;6427;49.754;6.106;2023-06-26T14:20:39;3.20;;;1.10;;
12725;SDS011;6427;49.754;6.106;2023-06-26T14:23:07;4.23;;;1.43;;
12725;SDS011;6427;49.754;6.106;2023-06-26T14:25:34;4.30;;;1.40;;
12725;SDS011;6427;49.754;6.106;2023-06-26T14:28:02;4.00;;;1.60;;
12725;SDS011;6427;49.754;6.106;2023-06-26T14:30:30;2.73;;;1.40;;
12725;SDS011;6427;49.754;6.106;2023-06-26T14:32:57;8.87;;;1.53;;
12725;SDS011;6427;49.754;6.106;2023-06-26T14:35:25;4.30;;;1.20;;
12725;SDS011;6427;49.754;6.106;2023-06-26T14:37:52;4.43;;;1.47;;
12725;SDS011;6427;49.754;6.106;2023-06-26T14:40:20;4.23;;;1.47;;
12725;SDS011;6427;49.754;6.106;2023-06-26T14:42:47;1.70;;;1.10;;
12725;SDS011;6427;49.754;6.106;2023-06-26T14:45:15;3.80;;;1.43;;
12725;SDS011;6427;49.754;6.106;2023-06-26T14:47:43;5.53;;;1.40;;
12725;SDS011;6427;49.754;6.106;2023-06-26T14:50:11;3.67;;;1.70;;
12725;SDS011;6427;49.754;6.106;2023-06-26T14:52:39;5.20;;;2.00;;
12725;SDS011;6427;49.754;6.106;2023-06-26T14:55:07;6.27;;;1.83;;
12725;SDS011;6427;49.754;6.106;2023-06-26T14:57:35;5.53;;;1.58;;
12725;SDS011;6427;49.754;6.106;2023-06-26T15:00:03;5.17;;;1.63;;
12725;SDS011;6427;49.754;6.106;2023-06-26T15:02:31;5.27;;;1.60;;
12725;SDS011;6427;49.754;6.106;2023-06-26T15:04:58;3.83;;;1.73;;
12725;SDS011;6427;49.754;6.106;2023-06-26T15:07:26;3.07;;;1.40;;
12725;SDS011;6427;49.754;6.106;2023-06-26T15:09:53;4.30;;;1.50;;
12725;SDS011;6427;49.754;6.106;2023-06-26T15:12:22;3.75;;;1.60;;
12725;SDS011;6427;49.754;6.106;2023-06-26T15:14:49;3.23;;;1.47;;
12725;SDS011;6427;49.754;6.106;2023-06-26T15:17:17;5.03;;;2.00;;
12725;SDS011;6427;49.754;6.106;2023-06-26T15:19:45;4.60;;;1.70;;
12725;SDS011;6427;49.754;6.106;2023-06-26T15:22:12;4.17;;;1.80;;
12725;SDS011;6427;49.754;6.106;2023-06-26T15:24:40;4.23;;;1.53;;